Time;durP1;ratioP1;P1;durP2;ratioP2;P2;SDS_P1;SDS_P2;PMS_P1;PMS_P2;Temp;Humidity;BMP_temperature;BMP_pressure;BME280_temperature;BME280_humidity;BME280_pressure;Samples;Min_cycle;Max_cycle;Signal;HPM_P1;HPM_P2
2020/12/18 00:01:28;;;;;;;55.50;46.80;;;9.60;99.90;;;;;;4950071;29;20263;-78
2020/12/18 00:03:54;;;;;;;;;;;9.50;99.90;;;;;;4948706;29;20043;-77
2020/12/18 00:06:21;;;;;;;48.50;42.95;;;9.40;99.90;;;;;;4932591;29;19918;-81
2020/12/18 00:08:48;;;;;;;53.75;47.97;;;9.40;99.90;;;;;;4946831;29;20179;-77
2020/12/18 00:11:25;;;;;;;52.45;44.03;;;9.40;99.90;;;;;;4952602;29;20116;-77
2020/12/18 00:13:52;;;;;;;58.05;46.03;;;9.30;99.90;;;;;;4927475;29;20032;-78
2020/12/18 00:16:19;;;;;;;54.85;47.90;;;9.30;99.90;;;;;;4951408;29;20043;-77
2020/12/18 00:18:46;;;;;;;58.30;50.17;;;9.30;99.90;;;;;;4945850;29;20032;-77
2020/12/18 00:21:22;;;;;;;62.47;49.17;;;9.40;99.90;;;;;;4931660;29;20225;-77
2020/12/18 00:23:49;;;;;;;58.80;46.60;;;9.40;99.90;;;;;;4953856;29;20422;-76
2020/12/18 00:26:15;;;;;;;53.55;47.28;;;9.50;99.90;;;;;;4950815;29;20039;-77
2020/12/18 00:28:42;;;;;;;54.30;48.40;;;9.50;99.90;;;;;;4929818;29;20371;-77
2020/12/18 00:31:08;;;;;;;62.15;50.97;;;9.50;99.90;;;;;;4928395;29;20028;-78
2020/12/18 00:33:34;;;;;;;56.03;46.78;;;9.60;99.90;;;;;;4951270;29;20031;-78
2020/12/18 00:36:00;;;;;;;54.10;47.80;;;9.50;99.90;;;;;;4943187;29;20031;-78
2020/12/18 00:38:25;;;;;;;63.30;50.08;;;9.60;99.90;;;;;;4953813;29;20031;-78
2020/12/18 00:40:51;;;;;;;62.63;50.85;;;9.60;99.90;;;;;;4946251;29;20034;-77
2020/12/18 00:43:17;;;;;;;53.15;47.05;;;9.60;99.90;;;;;;4951986;29;20024;-77
2020/12/18 00:45:43;;;;;;;54.42;47.30;;;9.60;99.90;;;;;;4950663;29;20106;-81
2020/12/18 00:48:10;;;;;;;55.63;46.92;;;9.60;99.90;;;;;;4950373;29;20027;-76
2020/12/18 00:50:36;;;;;;;56.70;48.65;;;9.60;99.90;;;;;;4946994;29;20035;-80
2020/12/18 00:53:04;;;;;;;53.30;46.28;;;9.60;99.90;;;;;;4951815;29;20031;-78
2020/12/18 00:55:30;;;;;;;57.28;51.10;;;9.60;99.90;;;;;;4961069;29;20047;-78
2020/12/18 00:57:56;;;;;;;53.22;46.85;;;9.60;99.90;;;;;;4935763;29;20163;-78
2020/12/18 01:00:22;;;;;;;55.65;48.67;;;9.60;99.90;;;;;;4935909;29;20531;-77
2020/12/18 01:02:48;;;;;;;52.33;46.53;;;9.60;99.90;;;;;;4950439;29;20027;-77
2020/12/18 01:05:14;;;;;;;62.35;48.22;;;9.60;99.90;;;;;;4947064;29;20050;-76
2020/12/18 01:07:41;;;;;;;54.80;48.58;;;9.60;99.90;;;;;;4948702;29;20398;-77
2020/12/18 01:10:07;;;;;;;68.35;55.55;;;9.60;99.90;;;;;;4932194;29;20042;-77
2020/12/18 01:12:33;;;;;;;60.05;53.60;;;9.60;99.90;;;;;;4953218;29;20078;-77
2020/12/18 01:14:59;;;;;;;61.75;54.92;;;9.50;99.90;;;;;;4957503;29;20422;-78
2020/12/18 01:17:25;;;;;;;59.78;53.47;;;9.60;99.90;;;;;;4943803;29;20115;-77
2020/12/18 01:19:51;;;;;;;64.28;55.65;;;9.60;99.90;;;;;;4952290;29;20059;-77
2020/12/18 01:22:17;;;;;;;53.53;47.67;;;9.60;99.90;;;;;;4959438;29;20103;-79
2020/12/18 01:24:59;;;;;;;53.60;46.83;;;9.70;99.90;;;;;;4952989;29;20450;-78
2020/12/18 01:27:25;;;;;;;45.22;40.28;;;9.80;99.90;;;;;;4930710;29;20483;-78
2020/12/18 01:29:51;;;;;;;42.72;36.15;;;9.70;99.90;;;;;;4950126;29;20027;-77
2020/12/18 01:32:17;;;;;;;41.13;36.63;;;9.80;99.90;;;;;;4949500;29;20020;-77
2020/12/18 01:34:44;;;;;;;38.88;33.40;;;9.80;99.90;;;;;;4952598;29;20479;-77
2020/12/18 01:37:13;;;;;;;37.60;33.53;;;9.90;99.90;;;;;;4950129;29;20062;-78
2020/12/18 01:39:39;;;;;;;42.55;33.80;;;9.90;99.90;;;;;;4934894;29;20023;-77
2020/12/18 01:42:05;;;;;;;41.10;36.70;;;9.90;99.90;;;;;;4958035;29;20610;-77
2020/12/18 01:44:31;;;;;;;38.42;34.42;;;9.90;99.90;;;;;;4948587;29;20032;-78
2020/12/18 01:46:57;;;;;;;40.35;36.08;;;9.80;99.90;;;;;;4930258;29;20046;-79
2020/12/18 01:49:24;;;;;;;42.90;35.22;;;9.80;99.90;;;;;;4934568;29;20031;-77
2020/12/18 01:51:53;;;;;;;43.88;34.95;;;9.80;99.90;;;;;;4954189;29;20402;-78
2020/12/18 01:54:25;;;;;;;43.72;34.67;;;9.90;99.90;;;;;;4948895;29;20083;-77
2020/12/18 01:56:52;;;;;;;;;;;9.90;99.90;;;;;;4953732;29;20035;-77
2020/12/18 01:59:19;;;;;;;44.40;37.08;;;9.80;99.90;;;;;;4951409;29;19935;-77
2020/12/18 02:01:46;;;;;;;36.05;32.25;;;9.80;99.90;;;;;;4952532;29;20031;-77
2020/12/18 02:04:12;;;;;;;37.92;31.83;;;9.70;99.90;;;;;;4953945;29;20019;-77
2020/12/18 02:06:40;;;;;;;35.13;29.60;;;9.70;99.90;;;;;;4936135;29;20098;-77
2020/12/18 02:09:06;;;;;;;36.25;32.42;;;9.70;99.90;;;;;;4934630;29;20058;-77
2020/12/18 02:11:32;;;;;;;36.50;32.65;;;9.80;99.90;;;;;;4933914;29;20031;-77
2020/12/18 02:13:58;;;;;;;36.25;31.40;;;9.70;99.90;;;;;;4965142;29;20031;-77
2020/12/18 02:16:24;;;;;;;35.60;31.23;;;9.80;99.90;;;;;;4958831;29;20088;-77
2020/12/18 02:18:50;;;;;;;37.22;31.90;;;9.80;99.90;;;;;;4942370;29;20028;-76
2020/12/18 02:21:16;;;;;;;33.63;30.08;;;9.80;99.90;;;;;;4955969;29;20079;-77
2020/12/18 02:23:43;;;;;;;39.35;30.85;;;9.80;99.90;;;;;;4961848;29;20024;-77
2020/12/18 02:26:10;;;;;;;35.15;31.45;;;9.90;99.90;;;;;;4940678;29;20043;-77
2020/12/18 02:28:38;;;;;;;36.25;32.45;;;9.90;99.90;;;;;;4934727;29;20031;-77
2020/12/18 02:31:04;;;;;;;34.97;31.40;;;9.80;99.90;;;;;;4926168;29;20032;-77
2020/12/18 02:33:31;;;;;;;37.33;30.67;;;9.80;99.90;;;;;;4940199;29;20038;-78
2020/12/18 02:35:58;;;;;;;34.25;30.67;;;9.90;99.90;;;;;;4929730;29;20075;-77
2020/12/18 02:38:24;;;;;;;33.47;30.13;;;9.80;99.90;;;;;;4924733;29;20063;-77
2020/12/18 02:40:51;;;;;;;36.63;31.55;;;9.80;99.90;;;;;;4950070;29;20031;-77
2020/12/18 02:43:17;;;;;;;36.38;30.65;;;9.80;99.90;;;;;;4948922;29;20035;-76
2020/12/18 02:45:43;;;;;;;34.83;28.80;;;9.80;99.90;;;;;;4951389;28;20433;-77
2020/12/18 02:48:10;;;;;;;33.90;30.55;;;9.80;99.90;;;;;;4930993;29;20034;-77
2020/12/18 02:50:35;;;;;;;34.25;30.52;;;9.80;99.90;;;;;;4950939;29;20019;-77
2020/12/18 02:53:11;;;;;;;33.08;29.67;;;9.80;99.90;;;;;;4950631;29;20115;-76
2020/12/18 02:55:37;;;;;;;30.23;24.92;;;9.90;99.90;;;;;;4943166;29;20031;-77
2020/12/18 02:58:03;;;;;;;31.45;26.75;;;9.90;99.90;;;;;;4946278;29;20031;-76
2020/12/18 03:00:29;;;;;;;32.00;28.45;;;10.00;99.90;;;;;;4949270;29;20027;-80
2020/12/18 03:02:54;;;;;;;30.88;27.40;;;10.00;99.90;;;;;;4950714;29;20035;-77
2020/12/18 03:05:21;;;;;;;31.65;28.23;;;10.00;99.90;;;;;;4951683;29;20023;-77
2020/12/18 03:07:47;;;;;;;28.92;24.92;;;10.10;99.90;;;;;;4955956;29;20486;-77
2020/12/18 03:10:13;;;;;;;27.25;24.38;;;10.00;99.90;;;;;;4950579;29;20478;-77
2020/12/18 03:12:39;;;;;;;31.27;27.48;;;10.00;99.90;;;;;;4935528;29;20043;-77
2020/12/18 03:15:05;;;;;;;30.40;27.20;;;10.00;99.90;;;;;;4945871;29;20035;-77
2020/12/18 03:17:30;;;;;;;30.98;26.08;;;10.00;99.90;;;;;;4947374;29;20028;-76
2020/12/18 03:19:56;;;;;;;27.40;24.60;;;10.00;99.90;;;;;;4929952;29;20024;-77
2020/12/18 03:22:22;;;;;;;27.70;24.88;;;10.00;99.90;;;;;;4953172;29;20027;-77
2020/12/18 03:24:48;;;;;;;26.52;23.20;;;10.10;99.90;;;;;;4935611;29;20119;-76
2020/12/18 03:27:14;;;;;;;25.08;22.42;;;10.10;99.90;;;;;;4947820;29;20043;-77
2020/12/18 03:29:40;;;;;;;30.73;27.35;;;10.10;99.90;;;;;;4952811;29;20028;-76
2020/12/18 03:32:06;;;;;;;27.65;24.73;;;10.10;99.90;;;;;;4939076;29;20042;-78
2020/12/18 03:34:32;;;;;;;28.08;25.13;;;10.20;99.90;;;;;;4948972;29;20085;-76
2020/12/18 03:36:58;;;;;;;24.80;22.33;;;10.20;99.90;;;;;;4954296;29;20066;-76
2020/12/18 03:39:24;;;;;;;27.33;24.52;;;10.30;99.90;;;;;;4933026;29;20024;-76
2020/12/18 03:41:49;;;;;;;33.95;27.58;;;10.30;99.90;;;;;;4956125;29;20414;-79
2020/12/18 03:44:18;;;;;;;30.05;26.63;;;10.20;99.90;;;;;;4929879;29;20090;-77
2020/12/18 03:46:44;;;;;;;31.15;27.88;;;10.10;99.90;;;;;;4940282;29;20489;-76
2020/12/18 03:49:13;;;;;;;32.10;28.67;;;10.10;99.90;;;;;;4950910;29;20107;-78
2020/12/18 03:51:39;;;;;;;31.35;28.05;;;10.00;99.90;;;;;;4951034;29;20466;-77
2020/12/18 03:54:07;;;;;;;31.42;28.17;;;9.90;99.90;;;;;;4949374;29;20038;-76
2020/12/18 03:56:33;;;;;;;30.00;26.75;;;10.00;99.90;;;;;;4950630;29;20023;-79
2020/12/18 03:58:59;;;;;;;31.67;28.02;;;9.90;99.90;;;;;;4937329;29;20034;-76
2020/12/18 04:01:25;;;;;;;30.58;27.48;;;9.90;99.90;;;;;;4936943;29;20038;-77
2020/12/18 04:03:51;;;;;;;29.35;26.02;;;9.90;99.90;;;;;;4941154;29;20027;-79
2020/12/18 04:06:16;;;;;;;29.92;26.60;;;10.00;99.90;;;;;;4937859;29;20086;-77
2020/12/18 04:08:42;;;;;;;31.10;26.92;;;9.90;99.90;;;;;;4955841;29;20100;-80
2020/12/18 04:11:08;;;;;;;28.20;25.35;;;10.00;99.90;;;;;;4962486;29;20038;-77
2020/12/18 04:13:35;;;;;;;27.55;24.65;;;10.00;99.90;;;;;;4953010;29;20541;-77
2020/12/18 04:16:03;;;;;;;27.60;24.77;;;10.10;99.90;;;;;;4953704;29;20506;-77
2020/12/18 04:18:29;;;;;;;26.85;24.25;;;10.10;99.90;;;;;;4926309;29;20031;-77
2020/12/18 04:20:55;;;;;;;28.10;25.10;;;10.10;99.90;;;;;;4936967;29;20112;-77
2020/12/18 04:23:21;;;;;;;26.08;23.58;;;10.10;99.90;;;;;;4947454;29;20031;-77
2020/12/18 04:25:47;;;;;;;27.75;24.88;;;10.10;99.90;;;;;;4929566;29;20027;-77
2020/12/18 04:28:13;;;;;;;26.90;24.27;;;10.10;99.90;;;;;;4946181;29;20020;-77
2020/12/18 04:30:43;;;;;;;31.80;26.02;;;10.10;99.90;;;;;;4954992;29;20046;-77
2020/12/18 04:33:09;;;;;;;27.27;24.55;;;10.00;99.90;;;;;;4937162;29;20027;-77
2020/12/18 04:35:35;;;;;;;26.73;23.75;;;10.00;99.90;;;;;;4940309;29;20027;-77
2020/12/18 04:38:10;;;;;;;27.42;24.63;;;10.00;99.90;;;;;;4934395;29;20044;-77
2020/12/18 04:40:36;;;;;;;27.05;24.20;;;10.00;99.90;;;;;;4956386;29;20033;-77
2020/12/18 04:43:02;;;;;;;29.40;25.05;;;10.00;99.90;;;;;;4935153;29;20138;-77
2020/12/18 04:45:29;;;;;;;30.20;27.02;;;10.00;99.90;;;;;;4949419;29;20024;-77
2020/12/18 04:48:02;;;;;;;27.42;24.15;;;10.00;99.90;;;;;;4933739;29;20115;-77
2020/12/18 04:50:31;;;;;;;29.40;25.42;;;10.00;99.90;;;;;;4927786;29;20102;-77
2020/12/18 04:52:58;;;;;;;29.98;26.67;;;9.90;99.90;;;;;;4949671;29;20114;-78
2020/12/18 04:55:28;;;;;;;31.80;26.40;;;9.90;99.90;;;;;;4930460;29;20024;-77
2020/12/18 04:58:01;;;;;;;28.58;25.63;;;9.90;99.90;;;;;;4934141;29;20090;-77
2020/12/18 05:00:27;;;;;;;26.77;23.15;;;9.90;99.90;;;;;;4908759;29;20043;-77
2020/12/18 05:02:54;;;;;;;27.08;24.25;;;10.00;99.90;;;;;;4947161;29;20047;-77
2020/12/18 05:05:20;;;;;;;27.65;24.73;;;10.00;99.90;;;;;;4950462;29;20034;-78
2020/12/18 05:07:46;;;;;;;27.33;24.55;;;10.00;99.90;;;;;;4931611;29;20087;-77
2020/12/18 05:10:12;;;;;;;26.75;22.25;;;10.00;99.90;;;;;;4952860;29;20031;-78
2020/12/18 05:12:38;;;;;;;28.60;25.73;;;9.90;99.90;;;;;;4936161;29;20023;-76
2020/12/18 05:15:12;;;;;;;29.63;26.08;;;9.90;99.90;;;;;;4952233;29;20027;-77
2020/12/18 05:17:38;;;;;;;28.98;24.58;;;9.90;99.90;;;;;;4932911;29;20028;-77
2020/12/18 05:20:04;;;;;;;33.15;27.63;;;9.90;99.90;;;;;;4936883;29;20027;-76
2020/12/18 05:22:31;;;;;;;33.08;26.45;;;9.80;99.90;;;;;;4950596;29;20533;-77
2020/12/18 05:24:57;;;;;;;28.90;25.88;;;9.80;99.90;;;;;;4934783;29;20028;-78
2020/12/18 05:27:23;;;;;;;30.65;27.55;;;9.80;99.90;;;;;;4943234;29;20035;-77
2020/12/18 05:29:49;;;;;;;30.80;27.60;;;9.90;99.90;;;;;;4945164;29;20031;-77
2020/12/18 05:32:16;;;;;;;28.08;25.30;;;9.90;99.90;;;;;;4956265;29;20025;-79
2020/12/18 05:34:44;;;;;;;26.90;24.05;;;9.80;99.90;;;;;;4946587;29;20039;-78
2020/12/18 05:37:14;;;;;;;30.88;26.30;;;9.80;99.90;;;;;;4946564;29;20067;-77
2020/12/18 05:39:40;;;;;;;27.27;24.65;;;9.80;99.90;;;;;;4951061;29;20058;-78
2020/12/18 05:42:07;;;;;;;27.13;24.25;;;9.80;99.90;;;;;;4947292;29;20033;-77
2020/12/18 05:44:33;;;;;;;28.77;25.88;;;9.90;99.90;;;;;;4945966;29;20027;-76
2020/12/18 05:47:07;;;;;;;26.73;24.02;;;9.90;99.90;;;;;;4942407;29;20082;-78
2020/12/18 05:49:35;;;;;;;33.78;28.20;;;9.90;99.90;;;;;;4940009;29;20024;-78
2020/12/18 05:52:03;;;;;;;30.50;27.42;;;9.80;99.90;;;;;;4948865;29;20043;-77
2020/12/18 05:54:34;;;;;;;30.52;27.30;;;9.80;99.90;;;;;;4920005;29;20079;-78
2020/12/18 05:57:12;;;;;;;29.58;26.38;;;9.80;99.90;;;;;;4946436;29;20023;-77
2020/12/18 05:59:43;;;;;;;32.65;25.88;;;9.80;99.90;;;;;;4921065;29;20567;-79
2020/12/18 06:02:16;;;;;;;32.70;27.17;;;9.80;99.90;;;;;;4945768;29;20487;-78
2020/12/18 06:04:44;;;;;;;29.20;25.52;;;9.80;99.90;;;;;;4952059;29;20027;-78
2020/12/18 06:07:10;;;;;;;31.15;27.92;;;9.90;99.90;;;;;;4944782;29;20028;-78
2020/12/18 06:09:38;;;;;;;29.80;26.67;;;9.90;99.90;;;;;;4954035;29;20099;-78
2020/12/18 06:12:08;;;;;;;30.02;27.13;;;9.90;99.90;;;;;;4939890;29;20032;-78
2020/12/18 06:14:34;;;;;;;30.60;27.10;;;10.00;99.90;;;;;;4946921;29;20128;-78
2020/12/18 06:17:09;;;;;;;32.05;27.95;;;10.00;99.90;;;;;;4928905;29;20035;-79
2020/12/18 06:19:42;;;;;;;32.35;28.42;;;10.00;99.90;;;;;;4947548;28;20038;-78
2020/12/18 06:22:13;;;;;;;30.92;27.70;;;10.00;99.90;;;;;;4942052;29;20027;-78
2020/12/18 06:24:41;;;;;;;30.88;26.85;;;10.00;99.90;;;;;;4947847;29;20023;-78
2020/12/18 06:27:18;;;;;;;27.55;24.65;;;10.00;99.90;;;;;;4930510;29;20498;-78
2020/12/18 06:29:45;;;;;;;26.05;23.33;;;10.00;99.90;;;;;;4926259;29;20171;-78
2020/12/18 06:32:29;;;;;;;29.10;26.00;;;10.00;99.90;;;;;;4942858;29;20451;-78
2020/12/18 06:35:15;;;;;;;32.50;25.70;;;10.10;99.90;;;;;;4945141;29;20031;-78
2020/12/18 06:37:41;;;;;;;37.50;26.75;;;10.10;99.90;;;;;;4931785;29;20494;-78
2020/12/18 06:40:25;;;;;;;29.15;24.17;;;10.00;99.90;;;;;;4953198;29;20042;-79
2020/12/18 06:42:51;;;;;;;34.08;24.77;;;10.00;99.90;;;;;;4951394;29;20075;-79
2020/12/18 06:45:17;;;;;;;25.95;23.45;;;10.00;99.90;;;;;;4963048;29;20035;-79
2020/12/18 06:47:43;;;;;;;31.08;23.58;;;10.00;99.90;;;;;;4959990;29;20093;-78
2020/12/18 06:50:12;;;;;;;27.67;24.85;;;10.00;99.90;;;;;;4960661;29;20030;-79
2020/12/18 06:52:52;;;;;;;26.23;23.45;;;10.00;99.90;;;;;;4948514;29;20106;-79
2020/12/18 06:55:30;;;;;;;28.73;25.83;;;10.10;99.90;;;;;;4927576;29;20024;-78
2020/12/18 06:58:08;;;;;;;30.95;25.55;;;10.00;99.90;;;;;;4946105;29;20035;-78
2020/12/18 07:00:43;;;;;;;27.48;24.05;;;10.00;99.90;;;;;;4951984;29;20027;-78
2020/12/18 07:03:10;;;;;;;28.55;23.65;;;10.10;99.90;;;;;;4942249;29;20034;-77
2020/12/18 07:05:41;;;;;;;28.10;25.13;;;10.20;99.90;;;;;;4922231;29;20024;-78
2020/12/18 07:08:08;;;;;;;28.50;25.55;;;10.20;99.90;;;;;;4944595;29;20024;-79
2020/12/18 07:10:42;;;;;;;38.80;24.90;;;10.10;99.90;;;;;;4956070;29;20066;-78
2020/12/18 07:13:13;;;;;;;29.35;26.25;;;10.20;99.90;;;;;;4942685;29;20027;-78
2020/12/18 07:15:45;;;;;;;32.80;26.02;;;10.20;99.90;;;;;;4927342;29;20023;-78
2020/12/18 07:18:23;;;;;;;30.80;25.67;;;10.30;99.90;;;;;;4947471;29;20035;-79
2020/12/18 07:20:54;;;;;;;27.30;24.60;;;10.30;99.90;;;;;;4943697;29;20228;-78
2020/12/18 07:23:21;;;;;;;33.45;24.90;;;10.30;99.90;;;;;;4943304;29;20433;-78
2020/12/18 07:25:50;;;;;;;37.10;27.17;;;10.40;99.90;;;;;;4950829;29;20023;-78
2020/12/18 07:28:17;;;;;;;32.63;26.20;;;10.40;99.90;;;;;;4947324;29;20490;-79
2020/12/18 07:30:45;;;;;;;28.60;25.55;;;10.50;99.90;;;;;;4952959;28;20073;-78
2020/12/18 07:33:13;;;;;;;28.27;25.20;;;10.40;99.90;;;;;;4944943;29;20482;-78
2020/12/18 07:35:46;;;;;;;40.97;26.00;;;10.40;99.90;;;;;;4946003;29;20118;-77
2020/12/18 07:38:27;;;;;;;37.72;26.58;;;10.40;99.90;;;;;;4924393;29;20506;-78
2020/12/18 07:40:55;;;;;;;33.13;24.90;;;10.40;99.90;;;;;;4956224;29;20069;-78
2020/12/18 07:43:25;;;;;;;29.63;24.15;;;10.50;99.90;;;;;;4943077;29;20035;-78
2020/12/18 07:45:55;;;;;;;31.83;24.95;;;10.80;99.90;;;;;;4948920;29;20031;-78
2020/12/18 07:48:30;;;;;;;30.95;27.52;;;10.90;99.90;;;;;;4938409;29;20086;-77
2020/12/18 07:51:20;;;;;;;32.00;26.95;;;10.80;99.90;;;;;;4934943;29;20392;-79
2020/12/18 07:53:50;;;;;;;39.45;27.63;;;10.70;99.90;;;;;;4940642;29;20489;-78
2020/12/18 07:56:18;;;;;;;34.75;25.17;;;10.80;99.90;;;;;;4939184;29;20122;-78
2020/12/18 07:58:53;;;;;;;30.05;23.58;;;11.10;99.90;;;;;;4948115;29;20385;-78
2020/12/18 08:01:50;;;;;;;37.05;26.05;;;11.30;99.90;;;;;;4952290;29;20042;-78
2020/12/18 08:05:17;;;;;;;32.17;23.13;;;11.50;99.90;;;;;;4932890;29;20032;-77
2020/12/18 08:07:44;;;;;;;36.88;23.55;;;11.60;99.90;;;;;;4916879;29;20039;-77
2020/12/18 08:10:14;;;;;;;28.05;22.77;;;11.90;99.90;;;;;;4943983;29;20039;-78
2020/12/18 08:12:40;;;;;;;27.40;23.35;;;11.90;99.90;;;;;;4940404;29;20482;-79
2020/12/18 08:15:07;;;;;;;33.35;25.75;;;11.90;99.90;;;;;;4947006;29;20109;-77
2020/12/18 08:17:34;;;;;;;31.13;23.73;;;11.90;99.90;;;;;;4941758;29;20028;-77
2020/12/18 08:20:08;;;;;;;30.30;23.88;;;11.90;99.90;;;;;;4927358;29;20040;-77
2020/12/18 08:22:39;;;;;;;40.80;25.58;;;11.90;99.90;;;;;;4935497;29;20055;-79
2020/12/18 08:25:08;;;;;;;28.25;25.05;;;11.90;99.90;;;;;;4943319;29;20024;-77
2020/12/18 08:27:44;;;;;;;30.88;23.73;;;12.00;99.90;;;;;;4941472;29;20447;-77
2020/12/18 08:30:10;;;;;;;30.25;25.85;;;12.10;99.90;;;;;;4942066;29;20034;-78
2020/12/18 08:32:41;;;;;;;27.13;24.10;;;12.20;99.90;;;;;;4946590;29;20084;-79
2020/12/18 08:35:08;;;;;;;28.17;25.27;;;12.10;99.90;;;;;;4940736;29;20022;-79
2020/12/18 08:37:35;;;;;;;33.13;29.50;;;12.20;99.90;;;;;;4934630;29;20066;-78
2020/12/18 08:40:01;;;;;;;35.10;27.60;;;12.20;99.90;;;;;;4940025;29;20100;-77
2020/12/18 08:42:27;;;;;;;35.40;27.45;;;12.30;99.90;;;;;;4945047;28;20094;-76
2020/12/18 08:44:53;;;;;;;40.78;29.33;;;12.20;99.90;;;;;;4950789;29;20108;-75
2020/12/18 08:47:25;;;;;;;31.40;28.17;;;12.20;99.90;;;;;;4948030;29;20027;-77
2020/12/18 08:49:54;;;;;;;32.78;28.00;;;12.10;99.90;;;;;;4951417;29;20496;-76
2020/12/18 08:52:27;;;;;;;34.97;29.63;;;12.00;99.90;;;;;;4943016;29;20438;-76
2020/12/18 08:55:03;;;;;;;35.45;29.17;;;12.00;99.90;;;;;;4937774;29;20028;-77
2020/12/18 08:57:32;;;;;;;35.95;28.45;;;12.00;99.90;;;;;;4941158;29;20059;-76
2020/12/18 09:00:07;;;;;;;48.60;30.73;;;12.00;99.90;;;;;;4938688;29;20390;-76
2020/12/18 09:02:38;;;;;;;43.25;27.70;;;12.20;99.90;;;;;;4934985;29;20063;-76
2020/12/18 09:05:42;;;;;;;39.95;29.38;;;12.30;99.90;;;;;;4929713;29;20031;-77
2020/12/18 09:08:21;;;;;;;28.92;24.25;;;12.30;99.90;;;;;;4925735;29;20103;-77
2020/12/18 09:10:59;;;;;;;34.83;26.65;;;12.30;99.90;;;;;;4919692;29;20407;-77
2020/12/18 09:13:28;;;;;;;42.08;30.48;;;12.40;99.90;;;;;;4939901;29;20093;-77
2020/12/18 09:16:09;;;;;;;38.67;29.67;;;12.50;99.90;;;;;;4942389;29;20036;-77
2020/12/18 09:18:41;;;;;;;34.15;27.70;;;12.70;99.90;;;;;;4939846;29;20062;-77
2020/12/18 09:21:08;;;;;;;34.17;28.75;;;12.70;99.90;;;;;;4918031;29;20031;-75
2020/12/18 09:23:34;;;;;;;32.58;29.08;;;12.70;99.90;;;;;;4932064;29;20024;-77
2020/12/18 09:26:02;;;;;;;36.55;31.70;;;12.80;99.90;;;;;;4928554;29;20032;-77
2020/12/18 09:28:34;;;;;;;39.97;31.92;;;12.80;99.90;;;;;;4927684;29;20423;-78
2020/12/18 09:31:02;;;;;;;46.97;36.20;;;12.80;99.90;;;;;;4933390;29;20031;-77
2020/12/18 09:33:35;;;;;;;41.20;32.97;;;12.80;99.90;;;;;;4921110;29;20494;-75
2020/12/18 09:36:11;;;;;;;46.13;33.03;;;12.80;99.90;;;;;;4937294;29;20083;-77
2020/12/18 09:38:44;;;;;;;45.10;30.25;;;12.80;99.90;;;;;;4938935;29;20111;-76
2020/12/18 09:41:16;;;;;;;63.83;31.65;;;12.90;99.90;;;;;;4937464;29;20016;-77
2020/12/18 09:43:42;;;;;;;45.47;27.27;;;12.90;99.90;;;;;;4947989;29;20078;-76
2020/12/18 09:46:18;;;;;;;52.13;28.77;;;12.80;99.90;;;;;;4958278;29;20118;-77
2020/12/18 09:48:46;;;;;;;60.45;30.23;;;12.80;99.90;;;;;;4929768;29;20028;-77
2020/12/18 09:51:13;;;;;;;52.05;34.85;;;12.80;99.90;;;;;;4938652;29;20500;-77
2020/12/18 09:53:39;;;;;;;58.35;37.63;;;12.80;99.90;;;;;;4939249;29;20083;-78
2020/12/18 09:56:12;;;;;;;52.67;36.58;;;12.80;99.90;;;;;;4939597;29;20032;-77
2020/12/18 09:58:38;;;;;;;58.45;35.50;;;12.90;99.90;;;;;;4943383;29;20067;-76
2020/12/18 10:01:05;;;;;;;52.47;37.53;;;12.90;99.90;;;;;;4937563;29;20027;-74
2020/12/18 10:03:31;;;;;;;62.00;41.22;;;13.00;99.90;;;;;;4937756;29;20024;-77
2020/12/18 10:05:57;;;;;;;75.00;39.28;;;12.90;99.90;;;;;;4920023;29;20035;-74
2020/12/18 10:08:23;;;;;;;46.58;34.28;;;12.90;99.90;;;;;;4937841;29;20031;-75
2020/12/18 10:10:49;;;;;;;49.97;33.50;;;12.90;99.90;;;;;;4919264;29;20391;-70
2020/12/18 10:13:16;;;;;;;45.55;32.90;;;13.00;99.90;;;;;;4935691;29;20389;-70
2020/12/18 10:15:42;;;;;;;43.50;33.33;;;13.00;99.90;;;;;;4936589;29;20151;-69
2020/12/18 10:18:08;;;;;;;42.85;31.75;;;13.00;99.90;;;;;;4936684;29;20055;-70
2020/12/18 10:20:34;;;;;;;44.88;33.42;;;13.00;99.90;;;;;;4936179;29;20035;-70
2020/12/18 10:23:00;;;;;;;42.53;34.20;;;13.00;99.90;;;;;;4936354;29;20040;-69
2020/12/18 10:25:26;;;;;;;44.00;32.60;;;12.90;99.90;;;;;;4935304;29;20087;-70
2020/12/18 10:27:52;;;;;;;45.03;35.10;;;13.00;99.90;;;;;;4935728;29;20028;-69
2020/12/18 10:30:21;;;;;;;37.35;33.08;;;13.10;99.90;;;;;;4918197;29;20022;-70
2020/12/18 10:32:47;;;;;;;51.13;35.30;;;13.10;99.90;;;;;;4950192;29;20073;-70
2020/12/18 10:35:14;;;;;;;45.67;37.53;;;13.20;99.90;;;;;;4949899;29;20028;-74
2020/12/18 10:37:44;;;;;;;44.28;36.70;;;13.10;99.90;;;;;;4935523;29;20483;-71
2020/12/18 10:40:12;;;;;;;51.17;34.47;;;13.30;99.90;;;;;;4935578;29;20039;-70
2020/12/18 10:42:40;;;;;;;39.90;35.38;;;13.30;99.90;;;;;;4935415;29;20023;-70
2020/12/18 10:45:09;;;;;;;44.38;34.85;;;13.30;99.90;;;;;;4937095;29;20391;-77
2020/12/18 10:47:36;;;;;;;40.20;35.13;;;13.40;99.90;;;;;;4941386;29;20023;-77
2020/12/18 10:50:02;;;;;;;38.38;34.25;;;13.50;99.90;;;;;;4941556;29;20031;-76
2020/12/18 10:52:28;;;;;;;39.45;33.58;;;13.60;99.90;;;;;;4938970;29;20039;-76
2020/12/18 10:54:54;;;;;;;39.97;35.85;;;13.60;99.90;;;;;;4945115;29;20024;-77
2020/12/18 10:57:20;;;;;;;48.33;36.78;;;13.60;99.90;;;;;;4944444;29;20407;-77
2020/12/18 10:59:47;;;;;;;46.80;38.97;;;13.70;99.90;;;;;;4945597;29;20075;-77
2020/12/18 11:02:13;;;;;;;57.88;35.88;;;13.80;99.90;;;;;;4943230;29;20027;-77
2020/12/18 11:04:39;;;;;;;58.92;36.65;;;13.80;99.90;;;;;;4939873;29;20028;-77
2020/12/18 11:07:04;;;;;;;85.57;36.47;;;13.80;99.90;;;;;;4922003;29;20028;-77
2020/12/18 11:09:30;;;;;;;81.78;39.92;;;13.80;99.90;;;;;;4965134;29;20041;-76
2020/12/18 11:11:57;;;;;;;86.93;36.78;;;13.70;99.90;;;;;;4951031;29;20027;-76
2020/12/18 11:14:24;;;;;;;82.53;38.00;;;13.70;99.90;;;;;;4945739;29;20043;-76
2020/12/18 11:16:52;;;;;;;77.97;36.08;;;13.70;99.90;;;;;;4946004;29;20032;-76
2020/12/18 11:19:19;;;;;;;51.17;35.83;;;13.80;99.90;;;;;;4944920;29;20042;-76
2020/12/18 11:21:47;;;;;;;74.75;38.25;;;13.90;99.90;;;;;;4941736;29;20038;-78
2020/12/18 11:24:14;;;;;;;51.22;36.35;;;13.90;99.90;;;;;;4938340;29;20051;-76
2020/12/18 11:26:40;;;;;;;54.05;35.58;;;13.80;99.90;;;;;;4944880;29;20525;-77
2020/12/18 11:29:06;;;;;;;43.35;36.80;;;13.60;99.90;;;;;;4916572;29;20032;-77
2020/12/18 11:31:32;;;;;;;43.10;35.20;;;13.60;99.90;;;;;;4924635;29;20066;-77
2020/12/18 11:33:58;;;;;;;44.70;33.70;;;13.50;99.90;;;;;;4941660;29;20035;-76
2020/12/18 11:36:24;;;;;;;39.72;33.20;;;13.40;99.90;;;;;;4942033;29;20119;-76
2020/12/18 11:38:50;;;;;;;46.40;36.42;;;13.30;99.90;;;;;;4945112;29;20035;-76
2020/12/18 11:41:20;;;;;;;42.10;35.50;;;13.30;99.90;;;;;;4945365;29;20554;-76
2020/12/18 11:43:47;;;;;;;39.20;34.60;;;13.40;99.90;;;;;;4943963;29;20032;-75
2020/12/18 11:46:13;;;;;;;41.78;35.03;;;13.50;99.90;;;;;;4927719;29;20048;-76
2020/12/18 11:48:39;;;;;;;39.42;34.80;;;13.50;99.90;;;;;;4942233;29;20028;-76
2020/12/18 11:51:06;;;;;;;37.55;33.75;;;13.60;99.90;;;;;;4920671;29;20032;-76
2020/12/18 11:53:31;;;;;;;40.78;36.35;;;13.50;99.90;;;;;;4936929;29;20058;-76
2020/12/18 11:55:57;;;;;;;41.40;34.78;;;13.50;99.90;;;;;;4921356;29;20495;-76
2020/12/18 11:58:23;;;;;;;38.40;32.70;;;13.60;99.90;;;;;;4936678;29;20068;-77
2020/12/18 12:00:50;;;;;;;41.25;34.45;;;13.70;99.90;;;;;;4936824;29;20506;-77
2020/12/18 12:03:16;;;;;;;41.22;35.05;;;13.90;99.90;;;;;;4915589;29;20039;-76
2020/12/18 12:05:42;;;;;;;48.47;41.30;;;14.10;99.90;;;;;;4912312;29;20032;-77
2020/12/18 12:08:07;;;;;;;43.33;38.10;;;13.80;99.90;;;;;;4936363;29;20491;-76
2020/12/18 12:10:34;;;;;;;41.33;37.13;;;13.80;99.90;;;;;;4936711;29;20083;-77
2020/12/18 12:13:00;;;;;;;44.42;39.67;;;13.60;99.90;;;;;;4936673;29;20403;-77
2020/12/18 12:15:26;;;;;;;46.35;40.88;;;13.60;99.90;;;;;;4936852;29;20039;-76
2020/12/18 12:17:51;;;;;;;45.58;41.08;;;13.50;99.90;;;;;;4938877;29;20055;-74
2020/12/18 12:20:17;;;;;;;49.97;44.70;;;13.60;99.90;;;;;;4941570;29;20034;-77
2020/12/18 12:22:43;;;;;;;48.90;44.05;;;13.50;99.90;;;;;;4950319;29;20034;-75
2020/12/18 12:25:09;;;;;;;47.33;42.38;;;13.50;99.90;;;;;;4953409;29;20054;-75
2020/12/18 12:27:35;;;;;;;50.30;44.47;;;13.30;99.90;;;;;;4920795;29;20086;-78
2020/12/18 12:30:02;;;;;;;52.47;47.22;;;13.30;99.90;;;;;;4934963;29;20585;-75
2020/12/18 12:32:28;;;;;;;54.47;48.78;;;13.20;99.90;;;;;;4919806;29;20550;-75
2020/12/18 12:34:54;;;;;;;60.13;53.83;;;13.20;99.90;;;;;;4932009;29;20031;-76
2020/12/18 12:37:22;;;;;;;66.20;55.80;;;12.90;99.90;;;;;;4943127;29;20091;-75